createdAt,value
2022-12-05T00:00:29.829Z,30.47
2022-12-05T00:02:56.972Z,30.50
2022-12-05T00:05:24.137Z,30.07
2022-12-05T00:07:51.456Z,29.67
2022-12-05T00:10:18.578Z,31.07
2022-12-05T00:12:45.664Z,30.17
2022-12-05T00:15:12.830Z,30.27
2022-12-05T00:17:42.909Z,31.10
2022-12-05T00:20:10.175Z,32.33
2022-12-05T00:22:38.372Z,30.20
2022-12-05T00:25:07.023Z,31.20
2022-12-05T00:27:34.885Z,31.50
2022-12-05T00:30:02.215Z,32.27
2022-12-05T00:32:30.395Z,30.00
2022-12-05T00:34:57.775Z,30.00
2022-12-05T00:37:25.196Z,29.33
2022-12-05T00:39:52.288Z,29.03
2022-12-05T00:42:19.486Z,29.57
2022-12-05T00:44:46.605Z,27.23
2022-12-05T00:47:13.763Z,29.17
2022-12-05T00:49:40.881Z,29.70
2022-12-05T00:52:07.950Z,29.67
2022-12-05T00:54:35.080Z,28.27
2022-12-05T00:57:02.218Z,28.60
2022-12-05T00:59:32.616Z,30.17
2022-12-05T01:01:59.814Z,28.87
2022-12-05T01:04:27.071Z,29.03
2022-12-05T01:06:57.932Z,30.17
2022-12-05T01:09:25.626Z,28.83
2022-12-05T01:11:52.828Z,31.67
2022-12-05T01:14:21.695Z,29.30
2022-12-05T01:16:49.947Z,30.63
2022-12-05T01:19:35.209Z,30.47
2022-12-05T01:22:02.429Z,29.13
2022-12-05T01:24:30.195Z,30.07
2022-12-05T01:26:57.933Z,31.57
2022-12-05T01:29:25.579Z,30.87
2022-12-05T01:31:52.885Z,28.47
2022-12-05T01:34:20.446Z,30.33
2022-12-05T01:36:48.054Z,29.50
2022-12-05T01:39:15.952Z,30.37
2022-12-05T01:41:44.797Z,31.30
2022-12-05T01:44:11.966Z,30.23
2022-12-05T01:46:44.442Z,29.43
2022-12-05T01:49:14.186Z,31.10
2022-12-05T01:51:45.122Z,30.33
2022-12-05T01:54:12.774Z,31.40
2022-12-05T01:56:41.516Z,30.77
2022-12-05T01:59:10.739Z,29.00
2022-12-05T02:01:38.201Z,29.33
2022-12-05T02:04:06.139Z,29.00
2022-12-05T02:06:33.297Z,28.73
2022-12-05T02:09:00.804Z,30.03
2022-12-05T02:11:29.254Z,29.33
2022-12-05T02:14:15.087Z,28.60
2022-12-05T02:16:48.760Z,26.00
2022-12-05T02:19:25.009Z,30.30
2022-12-05T02:22:01.327Z,28.67
2022-12-05T02:24:43.324Z,29.20
2022-12-05T02:27:29.337Z,29.47
2022-12-05T02:30:10.641Z,28.03
2022-12-05T02:32:48.586Z,27.97
2022-12-05T02:35:34.689Z,28.97
2022-12-05T02:38:20.289Z,28.20
2022-12-05T02:40:52.466Z,24.73
2022-12-05T02:43:21.716Z,28.13
2022-12-05T02:45:49.844Z,27.73
2022-12-05T02:48:18.799Z,27.67
2022-12-05T02:50:48.087Z,29.00
2022-12-05T02:53:16.400Z,27.83
2022-12-05T02:55:44.929Z,27.73
2022-12-05T02:58:13.971Z,29.07
2022-12-05T03:00:43.370Z,28.47
2022-12-05T03:03:16.302Z,28.47
2022-12-05T03:05:52.780Z,27.87
2022-12-05T03:08:22.875Z,27.27
2022-12-05T03:10:50.736Z,27.03
2022-12-05T03:13:28.665Z,28.47
2022-12-05T03:16:01.477Z,26.60
2022-12-05T03:18:33.380Z,25.67
2022-12-05T03:21:03.436Z,26.77
2022-12-05T03:23:33.127Z,28.07
2022-12-05T03:26:14.447Z,27.43
2022-12-05T03:28:53.853Z,27.10
2022-12-05T03:31:25.315Z,28.73
2022-12-05T03:33:58.347Z,27.33
2022-12-05T03:36:29.660Z,25.67
2022-12-05T03:39:18.570Z,25.30
2022-12-05T03:41:51.770Z,27.63
2022-12-05T03:44:22.114Z,28.37
2022-12-05T03:46:55.177Z,25.03
2022-12-05T03:49:33.689Z,27.97
2022-12-05T03:52:10.596Z,27.53
2022-12-05T03:54:48.678Z,28.27
2022-12-05T03:57:15.738Z,27.77
2022-12-05T03:59:42.813Z,27.23
2022-12-05T04:02:18.974Z,26.97
2022-12-05T04:05:12.350Z,28.30
2022-12-05T04:07:40.618Z,27.07
2022-12-05T04:10:11.398Z,26.13
2022-12-05T04:12:40.445Z,26.57
2022-12-05T04:15:10.265Z,29.00
2022-12-05T04:17:53.233Z,26.23
2022-12-05T04:20:39.401Z,26.97
2022-12-05T04:23:07.251Z,26.07
2022-12-05T04:25:37.976Z,27.40
2022-12-05T04:28:05.054Z,26.00
2022-12-05T04:30:36.224Z,25.27
2022-12-05T04:33:06.264Z,26.77
2022-12-05T04:35:36.878Z,24.70
2022-12-05T04:38:16.280Z,25.60
2022-12-05T04:40:58.933Z,27.33
2022-12-05T04:43:27.376Z,26.07
2022-12-05T04:45:55.858Z,25.57
2022-12-05T04:48:23.633Z,26.50
2022-12-05T04:50:52.184Z,26.37
2022-12-05T04:53:20.277Z,26.20
2022-12-05T04:55:48.573Z,25.00
2022-12-05T04:58:19.518Z,24.77
2022-12-05T05:00:52.733Z,24.47
2022-12-05T05:03:23.298Z,22.63
2022-12-05T05:05:52.308Z,22.87
2022-12-05T05:08:20.760Z,24.10
2022-12-05T05:11:11.441Z,24.40
2022-12-05T05:13:38.517Z,23.27
2022-12-05T05:16:05.922Z,24.47
2022-12-05T05:18:33.538Z,24.70
2022-12-05T05:21:00.771Z,22.20
2022-12-05T05:23:27.849Z,22.97
2022-12-05T05:25:55.634Z,22.97
2022-12-05T05:28:23.260Z,23.10
2022-12-05T05:30:50.499Z,24.33
2022-12-05T05:33:17.693Z,23.77
2022-12-05T05:35:44.788Z,24.07
2022-12-05T05:38:11.899Z,23.27
2022-12-05T05:40:39.107Z,24.60
2022-12-05T05:43:06.275Z,22.70
2022-12-05T05:45:33.354Z,23.13
2022-12-05T05:48:00.456Z,23.10
2022-12-05T05:50:27.535Z,24.07
2022-12-05T05:52:54.638Z,23.23
2022-12-05T05:55:21.755Z,25.63
2022-12-05T05:57:48.875Z,23.40
2022-12-05T06:00:16.184Z,24.40
2022-12-05T06:02:43.385Z,23.30
2022-12-05T06:05:10.648Z,22.83
2022-12-05T06:07:37.816Z,19.87
2022-12-05T06:10:05.189Z,21.07
2022-12-05T06:12:32.287Z,24.97
2022-12-05T06:14:59.440Z,24.40
2022-12-05T06:17:26.512Z,25.50
2022-12-05T06:19:53.693Z,24.97
2022-12-05T06:22:20.772Z,25.27
2022-12-05T06:24:47.936Z,25.13
2022-12-05T06:27:15.103Z,26.20
2022-12-05T06:29:42.345Z,25.23
2022-12-05T06:32:09.567Z,25.27
2022-12-05T06:34:37.155Z,25.33
2022-12-05T06:37:04.527Z,25.97
2022-12-05T06:39:31.783Z,26.57
2022-12-05T06:41:59.052Z,26.10
2022-12-05T06:44:27.105Z,24.37
2022-12-05T06:46:54.787Z,25.13
2022-12-05T06:49:27.862Z,28.13
2022-12-05T06:51:57.284Z,26.03
2022-12-05T06:54:24.373Z,24.60
2022-12-05T06:56:51.549Z,27.60
2022-12-05T06:59:18.707Z,27.80
2022-12-05T07:01:47.118Z,26.93
2022-12-05T07:04:24.349Z,26.60
2022-12-05T07:06:52.726Z,27.33
2022-12-05T07:09:21.192Z,26.20
2022-12-05T07:11:49.525Z,26.93
2022-12-05T07:14:39.098Z,27.97
2022-12-05T07:17:04.192Z,28.00
2022-12-05T07:19:31.507Z,29.57
2022-12-05T07:21:58.744Z,27.53
2022-12-05T07:24:25.889Z,29.47
2022-12-05T07:26:53.091Z,28.87
2022-12-05T07:29:20.266Z,27.67
2022-12-05T07:31:47.523Z,29.13
2022-12-05T07:34:14.780Z,28.83
2022-12-05T07:36:41.881Z,29.33
2022-12-05T07:39:10.257Z,27.77
2022-12-05T07:41:37.420Z,27.73
2022-12-05T07:44:04.528Z,27.60
2022-12-05T07:46:31.708Z,27.83
2022-12-05T07:48:58.815Z,27.80
2022-12-05T07:51:26.150Z,27.43
2022-12-05T07:53:53.500Z,29.57
2022-12-05T07:56:20.684Z,26.83
2022-12-05T07:58:48.987Z,28.83
2022-12-05T08:01:22.845Z,27.47
2022-12-05T08:03:50.368Z,27.17
2022-12-05T08:06:18.853Z,28.60
2022-12-05T08:08:49.837Z,26.60
2022-12-05T08:11:18.095Z,26.60
2022-12-05T08:13:45.828Z,27.83
2022-12-05T08:16:14.264Z,26.10
2022-12-05T08:18:41.586Z,25.70
2022-12-05T08:21:10.915Z,27.63
2022-12-05T08:23:38.854Z,28.97
2022-12-05T08:26:10.911Z,27.70
2022-12-05T08:28:38.344Z,28.43
2022-12-05T08:31:11.021Z,28.10
2022-12-05T08:33:38.394Z,29.23
2022-12-05T08:36:06.516Z,27.93
2022-12-05T08:38:33.765Z,28.93
2022-12-05T08:41:02.137Z,28.73
2022-12-05T08:43:29.890Z,28.97
2022-12-05T08:45:57.220Z,26.87
2022-12-05T08:48:29.043Z,28.13
2022-12-05T08:50:56.822Z,29.50
2022-12-05T08:53:23.964Z,28.83
2022-12-05T08:55:51.203Z,27.03
2022-12-05T08:58:18.319Z,27.30
2022-12-05T09:00:45.513Z,29.57
2022-12-05T09:03:13.087Z,29.20
2022-12-05T09:05:40.203Z,29.50
2022-12-05T09:08:07.475Z,27.13
2022-12-05T09:10:34.821Z,30.10
2022-12-05T09:13:02.315Z,28.43
2022-12-05T09:15:29.819Z,29.20
2022-12-05T09:17:56.932Z,30.40
2022-12-05T09:20:24.109Z,29.33
2022-12-05T09:22:52.727Z,28.90
2022-12-05T09:25:19.870Z,27.83
2022-12-05T09:27:47.070Z,28.10
2022-12-05T09:30:14.735Z,27.37
2022-12-05T09:32:41.786Z,28.20
2022-12-05T09:35:09.122Z,29.57
2022-12-05T09:37:40.222Z,28.67
2022-12-05T09:40:08.351Z,27.17
2022-12-05T09:42:50.624Z,28.20
2022-12-05T09:45:31.013Z,30.70
2022-12-05T09:48:05.744Z,28.50
2022-12-05T09:50:35.135Z,29.10
2022-12-05T09:53:14.694Z,28.20
2022-12-05T09:55:48.016Z,28.27
2022-12-05T09:58:29.479Z,28.73
2022-12-05T10:01:23.040Z,29.73
2022-12-05T10:04:00.234Z,28.23
2022-12-05T10:06:31.442Z,29.93
2022-12-05T10:09:17.463Z,30.20
2022-12-05T10:11:44.613Z,29.57
2022-12-05T10:14:11.915Z,31.10
2022-12-05T10:16:47.719Z,28.53
2022-12-05T10:19:19.892Z,28.77
2022-12-05T10:21:50.079Z,28.83
2022-12-05T10:24:19.958Z,29.70
2022-12-05T10:26:49.604Z,27.20
2022-12-05T10:29:16.668Z,28.13
2022-12-05T10:31:45.707Z,27.43
2022-12-05T10:34:17.519Z,26.63
2022-12-05T10:37:03.271Z,26.50
2022-12-05T10:39:30.372Z,27.00
2022-12-05T10:41:57.525Z,27.23
2022-12-05T10:44:24.620Z,26.23
2022-12-05T10:46:51.835Z,24.93
2022-12-05T10:49:19.904Z,25.73
2022-12-05T10:51:49.055Z,26.13
2022-12-05T10:54:21.547Z,26.40
2022-12-05T10:56:50.000Z,27.40
2022-12-05T10:59:21.649Z,25.93
2022-12-05T11:01:52.408Z,27.23
2022-12-05T11:04:22.992Z,25.87
2022-12-05T11:06:58.957Z,28.43
2022-12-05T11:09:27.776Z,28.50
2022-12-05T11:12:00.929Z,26.07
2022-12-05T11:14:29.791Z,27.97
2022-12-05T11:16:58.229Z,29.33
2022-12-05T11:19:31.492Z,28.93
2022-12-05T11:21:58.744Z,26.40
2022-12-05T11:24:30.999Z,26.63
2022-12-05T11:26:59.360Z,27.83
2022-12-05T11:29:31.480Z,28.60
2022-12-05T11:31:59.392Z,27.33
2022-12-05T11:34:38.555Z,26.87
2022-12-05T11:37:11.409Z,28.17
2022-12-05T11:39:38.552Z,28.03
2022-12-05T11:42:08.619Z,28.93
2022-12-05T11:44:54.168Z,28.20
2022-12-05T11:47:33.553Z,29.33
2022-12-05T11:50:07.028Z,29.20
2022-12-05T11:52:40.235Z,29.50
2022-12-05T11:55:28.274Z,30.03
2022-12-05T11:57:55.368Z,28.63
2022-12-05T12:00:24.136Z,27.77
2022-12-05T12:03:00.014Z,26.83
2022-12-05T12:05:29.891Z,27.83
2022-12-05T12:08:03.256Z,27.00
2022-12-05T12:10:36.851Z,27.97
2022-12-05T12:13:07.157Z,29.23
2022-12-05T12:15:34.252Z,28.63
2022-12-05T12:18:09.094Z,29.53
2022-12-05T12:20:38.956Z,27.77
2022-12-05T12:23:06.081Z,27.93
2022-12-05T12:25:45.724Z,29.57
2022-12-05T12:28:29.381Z,29.47
2022-12-05T12:31:19.801Z,26.97
2022-12-05T12:33:49.870Z,27.00
2022-12-05T12:36:32.413Z,27.53
2022-12-05T12:39:08.811Z,27.67
2022-12-05T12:41:46.374Z,26.23
2022-12-05T12:44:24.552Z,27.60
2022-12-05T12:46:54.863Z,26.83
2022-12-05T12:49:37.852Z,30.33
2022-12-05T12:52:11.585Z,29.43
2022-12-05T12:55:03.471Z,28.03
2022-12-05T12:57:35.861Z,29.20
2022-12-05T13:00:20.917Z,29.07
2022-12-05T13:02:53.925Z,29.03
2022-12-05T13:05:21.112Z,28.80
2022-12-05T13:07:54.935Z,27.83
2022-12-05T13:10:22.033Z,28.57
2022-12-05T13:12:49.433Z,28.03
2022-12-05T13:15:23.384Z,28.80
2022-12-05T13:17:51.171Z,27.80
2022-12-05T13:20:21.081Z,29.47
2022-12-05T13:22:49.932Z,29.83
2022-12-05T13:25:18.477Z,29.43
2022-12-05T13:28:02.649Z,31.10
2022-12-05T13:30:31.075Z,29.20
2022-12-05T13:32:59.058Z,30.03
2022-12-05T13:35:50.700Z,29.20
2022-12-05T13:38:43.183Z,29.63
2022-12-05T13:41:29.249Z,31.10
2022-12-05T13:44:06.436Z,29.23
2022-12-05T13:46:35.565Z,29.70
2022-12-05T13:49:11.641Z,28.23
2022-12-05T13:51:43.176Z,29.50
2022-12-05T13:54:19.159Z,29.30
2022-12-05T13:56:48.084Z,30.13
2022-12-05T13:59:35.205Z,28.77
2022-12-05T14:02:02.747Z,29.30
2022-12-05T14:04:45.319Z,29.00
2022-12-05T14:07:12.442Z,31.53
2022-12-05T14:09:50.941Z,30.27
2022-12-05T14:12:18.181Z,30.00
2022-12-05T14:14:56.660Z,31.40
2022-12-05T14:17:27.749Z,31.47
2022-12-05T14:20:09.569Z,32.40
2022-12-05T14:22:39.536Z,32.50
2022-12-05T14:25:25.133Z,33.30
2022-12-05T14:28:03.986Z,33.10
2022-12-05T14:30:46.463Z,31.77
2022-12-05T14:33:18.211Z,31.30
2022-12-05T14:35:48.710Z,30.53
2022-12-05T14:38:21.769Z,31.47
2022-12-05T14:40:49.228Z,32.93
2022-12-05T14:43:19.126Z,32.20
2022-12-05T14:45:57.743Z,31.20
2022-12-05T14:48:30.160Z,30.43
2022-12-05T14:50:57.839Z,30.70
2022-12-05T14:53:30.226Z,29.00
2022-12-05T14:55:57.463Z,30.40
2022-12-05T14:58:43.503Z,31.87
2022-12-05T15:01:20.186Z,30.47
2022-12-05T15:04:06.007Z,28.70
2022-12-05T15:06:35.405Z,35.33
2022-12-05T15:09:35.390Z,43.00
2022-12-05T15:11:53.670Z,49.43
2022-12-05T15:14:23.440Z,43.20
2022-12-05T15:16:51.871Z,36.73
2022-12-05T15:19:30.750Z,32.33
2022-12-05T15:21:59.500Z,31.33
2022-12-05T15:24:26.680Z,32.40
2022-12-05T15:26:55.436Z,31.13
2022-12-05T15:29:29.015Z,31.80
2022-12-05T15:31:57.320Z,31.47
2022-12-05T15:34:44.809Z,32.33
2022-12-05T15:37:16.084Z,33.93
2022-12-05T15:39:52.525Z,33.13
2022-12-05T15:42:22.505Z,33.10
2022-12-05T15:44:53.348Z,31.90
2022-12-05T15:47:24.588Z,32.67
2022-12-05T15:49:52.380Z,37.00
2022-12-05T15:52:30.372Z,37.83
2022-12-05T15:55:00.768Z,38.07
2022-12-05T15:57:33.118Z,37.40
2022-12-05T16:00:04.591Z,37.03
2022-12-05T16:02:43.854Z,36.73
2022-12-05T16:05:21.746Z,34.27
2022-12-05T16:07:50.300Z,33.70
2022-12-05T16:10:23.409Z,32.40
2022-12-05T16:12:53.692Z,32.03
2022-12-05T16:15:23.309Z,36.20
2022-12-05T16:17:57.821Z,37.10
2022-12-05T16:20:35.000Z,42.27
2022-12-05T16:23:06.591Z,41.53
2022-12-05T16:25:37.642Z,38.93
2022-12-05T16:28:11.314Z,39.53
2022-12-05T16:30:39.563Z,35.47
2022-12-05T16:33:08.851Z,34.33
2022-12-05T16:35:37.832Z,36.07
2022-12-05T16:38:08.008Z,36.27
2022-12-05T16:40:35.168Z,36.50
2022-12-05T16:43:06.044Z,35.37
2022-12-05T16:45:41.446Z,36.37
2022-12-05T16:48:16.110Z,33.87
2022-12-05T16:50:43.601Z,34.53
2022-12-05T16:53:10.714Z,33.60
2022-12-05T16:55:38.355Z,35.37
2022-12-05T16:58:06.302Z,35.07
2022-12-05T17:00:33.548Z,40.13
2022-12-05T17:03:25.913Z,40.73
2022-12-05T17:05:47.774Z,37.03
2022-12-05T17:08:15.023Z,41.23
2022-12-05T17:10:43.146Z,47.10
2022-12-05T17:13:11.120Z,46.80
2022-12-05T17:15:38.404Z,44.30
2022-12-05T17:18:12.153Z,43.70
2022-12-05T17:20:41.073Z,45.00
2022-12-05T17:23:11.589Z,45.07
2022-12-05T17:25:39.023Z,45.63
2022-12-05T17:28:06.157Z,49.37
2022-12-05T17:30:34.537Z,43.63
2022-12-05T17:33:01.736Z,41.83
2022-12-05T17:35:30.040Z,43.23
2022-12-05T17:37:57.236Z,41.20
2022-12-05T17:40:24.404Z,41.77
2022-12-05T17:42:51.573Z,42.43
2022-12-05T17:45:18.803Z,57.03
2022-12-05T17:47:46.076Z,58.63
2022-12-05T17:50:17.162Z,51.30
2022-12-05T17:52:45.122Z,44.63
2022-12-05T17:55:17.371Z,42.17
2022-12-05T17:57:45.501Z,40.10
2022-12-05T18:00:13.577Z,42.90
2022-12-05T18:02:40.950Z,42.43
2022-12-05T18:05:11.793Z,40.00
2022-12-05T18:07:39.496Z,39.30
2022-12-05T18:10:12.479Z,39.97
2022-12-05T18:12:41.232Z,38.17
2022-12-05T18:15:09.256Z,42.93
2022-12-05T18:17:36.395Z,41.87
2022-12-05T18:20:04.004Z,38.93
2022-12-05T18:22:31.215Z,42.07
2022-12-05T18:24:59.012Z,44.03
2022-12-05T18:27:26.319Z,41.93
2022-12-05T18:29:53.453Z,43.13
2022-12-05T18:32:20.833Z,42.97
2022-12-05T18:34:48.004Z,44.00
2022-12-05T18:37:16.535Z,53.13
2022-12-05T18:39:43.836Z,52.90
2022-12-05T18:42:14.991Z,54.73
2022-12-05T18:44:42.616Z,70.87
2022-12-05T18:47:09.908Z,72.73
2022-12-05T18:49:38.514Z,63.43
2022-12-05T18:52:05.682Z,53.77
2022-12-05T18:54:32.820Z,52.03
2022-12-05T18:56:59.900Z,51.60
2022-12-05T18:59:28.653Z,49.63
2022-12-05T19:01:55.871Z,48.57
2022-12-05T19:04:23.136Z,50.27
2022-12-05T19:06:52.698Z,54.63
2022-12-05T19:09:21.015Z,52.93
2022-12-05T19:11:49.652Z,53.97
2022-12-05T19:14:18.875Z,53.20
2022-12-05T19:16:47.409Z,53.17
2022-12-05T19:19:15.218Z,51.73
2022-12-05T19:21:42.505Z,51.00
2022-12-05T19:24:11.681Z,51.07
2022-12-05T19:26:38.950Z,53.37
2022-12-05T19:29:06.226Z,53.70
2022-12-05T19:31:35.888Z,54.83
2022-12-05T19:34:05.282Z,54.60
2022-12-05T19:36:37.094Z,54.80
2022-12-05T19:39:26.672Z,53.43
2022-12-05T19:41:56.368Z,54.37
2022-12-05T19:44:23.551Z,53.57
2022-12-05T19:46:50.659Z,56.10
2022-12-05T19:49:17.856Z,54.83
2022-12-05T19:51:45.523Z,54.40
2022-12-05T19:54:14.024Z,55.80
2022-12-05T19:56:41.152Z,71.70
2022-12-05T19:59:08.424Z,77.77
2022-12-05T20:01:36.817Z,64.43
2022-12-05T20:04:08.441Z,60.37
2022-12-05T20:06:36.864Z,55.97
2022-12-05T20:09:04.505Z,56.67
2022-12-05T20:11:31.594Z,54.43
2022-12-05T20:14:00.141Z,56.40
2022-12-05T20:16:27.956Z,61.43
2022-12-05T20:18:58.203Z,59.60
2022-12-05T20:21:26.031Z,55.23
2022-12-05T20:23:54.455Z,52.50
2022-12-05T20:26:23.448Z,54.43
2022-12-05T20:28:51.209Z,53.43
2022-12-05T20:31:19.952Z,52.37
2022-12-05T20:33:47.885Z,51.93
2022-12-05T20:36:16.291Z,59.63
2022-12-05T20:38:43.716Z,66.83
2022-12-05T20:41:15.234Z,55.87
2022-12-05T20:43:43.075Z,51.80
2022-12-05T20:46:17.888Z,49.30
2022-12-05T20:48:49.727Z,58.97
2022-12-05T20:51:18.522Z,58.00
2022-12-05T20:53:46.127Z,53.13
2022-12-05T20:56:14.815Z,51.07
2022-12-05T20:58:42.451Z,53.67
2022-12-05T21:01:11.072Z,56.33
2022-12-05T21:03:40.972Z,56.80
2022-12-05T21:06:12.431Z,51.77
2022-12-05T21:08:39.800Z,54.27
2022-12-05T21:11:07.442Z,54.90
2022-12-05T21:13:34.849Z,53.87
2022-12-05T21:16:02.879Z,59.03
2022-12-05T21:18:30.724Z,55.53
2022-12-05T21:20:59.023Z,57.43
2022-12-05T21:23:26.396Z,58.70
2022-12-05T21:25:54.096Z,59.33
2022-12-05T21:28:22.017Z,60.20
2022-12-05T21:30:49.160Z,56.47
2022-12-05T21:33:16.573Z,53.77
2022-12-05T21:35:43.792Z,51.97
2022-12-05T21:38:11.015Z,53.53
2022-12-05T21:40:38.297Z,56.53
2022-12-05T21:43:05.748Z,54.97
2022-12-05T21:45:32.957Z,53.57
2022-12-05T21:48:00.097Z,54.73
2022-12-05T21:50:27.255Z,54.07
2022-12-05T21:52:54.364Z,51.97
2022-12-05T21:55:21.524Z,51.23
2022-12-05T21:57:49.036Z,44.50
2022-12-05T22:00:16.391Z,43.90
2022-12-05T22:02:43.674Z,44.17
2022-12-05T22:05:10.988Z,45.83
2022-12-05T22:07:38.106Z,45.97
2022-12-05T22:10:05.674Z,44.23
2022-12-05T22:12:34.155Z,45.03
2022-12-05T22:15:01.370Z,44.00
2022-12-05T22:17:28.520Z,45.10
2022-12-05T22:19:57.339Z,43.93
2022-12-05T22:22:25.276Z,43.40
2022-12-05T22:24:52.454Z,44.77
2022-12-05T22:27:20.113Z,43.20
2022-12-05T22:29:51.356Z,42.20
2022-12-05T22:32:20.001Z,44.13
2022-12-05T22:34:47.106Z,43.00
2022-12-05T22:37:14.236Z,42.73
2022-12-05T22:39:41.390Z,41.93
2022-12-05T22:42:08.552Z,41.17
2022-12-05T22:44:35.690Z,40.93
2022-12-05T22:47:03.007Z,42.60
2022-12-05T22:49:30.256Z,42.43
2022-12-05T22:51:57.353Z,43.70
2022-12-05T22:54:28.729Z,41.43
2022-12-05T22:56:57.442Z,40.73
2022-12-05T22:59:24.651Z,41.47
2022-12-05T23:01:51.888Z,39.83
2022-12-05T23:04:20.212Z,41.67
2022-12-05T23:06:47.356Z,41.80
2022-12-05T23:09:14.590Z,40.30
2022-12-05T23:11:41.658Z,40.80
2022-12-05T23:14:08.833Z,39.93
2022-12-05T23:16:36.279Z,38.63
2022-12-05T23:19:05.049Z,39.27
2022-12-05T23:21:34.189Z,40.40
2022-12-05T23:24:02.881Z,40.33
2022-12-05T23:26:31.952Z,39.07
2022-12-05T23:28:59.054Z,39.17
2022-12-05T23:31:26.834Z,39.80
2022-12-05T23:33:58.370Z,38.00
2022-12-05T23:36:28.509Z,41.53
2022-12-05T23:38:55.657Z,40.03
2022-12-05T23:41:24.183Z,41.30
2022-12-05T23:43:51.832Z,41.63
2022-12-05T23:46:22.059Z,40.80
2022-12-05T23:48:49.775Z,39.20
2022-12-05T23:51:22.056Z,41.13
2022-12-05T23:53:52.334Z,38.70
2022-12-05T23:56:22.191Z,37.47
2022-12-05T23:58:49.380Z,38.00
